Newman Grove, Nebraska
Current Conditions -  °F | °C
As of 4:35 PM on Wednesday 26 Nov 2014 (Local Time) from KBVN Reporting Station
Clear Clear  
Wind Chill: 14°   Ceiling: Unl
Heat Index: 26°   Visibility: 10mi
Dew Point: 14°   Wind: 14mph
Humidity: 62%   Direction: 330°NNW
Pressure: 30.32"   Gusts: 21mph
Location:  41.75°N, 97.78°W
Report Text: KBVN 262235Z AUTO 33012G18KT 10SM CLR M04/M10 A3032 RMK AO2 T10361100
Loading
Personal Weather Stations






























Interactive Weather Map New forecast layout! Learn more

10-Day Weather Forecast

Advertisements
Track Severe Weather on mobile